Time;durP1;ratioP1;P1;durP2;ratioP2;P2;SDS_P1;SDS_P2;PMS_P1;PMS_P2;Temp;Humidity;BMP_temperature;BMP_pressure;BME280_temperature;BME280_humidity;BME280_pressure;Samples;Min_cycle;Max_cycle;Signal;HPM_P1;HPM_P2
2022/03/18 00:02:21;;;;;;;5.07;1.55;;;3.20;99.90;;;;;;5008407;28;20112;-57
2022/03/18 00:04:48;;;;;;;12.13;2.17;;;3.20;99.90;;;;;;5009809;28;20040;-54
2022/03/18 00:07:15;;;;;;;4.32;1.45;;;3.20;99.90;;;;;;5010613;28;20077;-57
2022/03/18 00:09:41;;;;;;;3.47;1.30;;;3.20;99.90;;;;;;4998069;28;20034;-53
2022/03/18 00:12:08;;;;;;;5.25;1.50;;;3.20;99.90;;;;;;5008082;28;20117;-57
2022/03/18 00:14:34;;;;;;;8.27;1.75;;;3.20;99.90;;;;;;5009712;28;20060;-56
2022/03/18 00:17:00;;;;;;;6.45;1.65;;;3.10;99.90;;;;;;5000272;28;20041;-56
2022/03/18 00:19:27;;;;;;;7.90;1.80;;;3.10;99.90;;;;;;5000849;28;20048;-55
2022/03/18 00:22:00;;;;;;;7.50;3.15;;;3.20;99.90;;;;;;5004605;28;20490;-57
2022/03/18 00:24:25;;;;;;;8.65;2.33;;;3.20;99.90;;;;;;5006942;28;20069;-54
2022/03/18 00:26:51;;;;;;;7.07;2.22;;;3.20;99.90;;;;;;5001092;28;20088;-56
2022/03/18 00:29:17;;;;;;;12.70;3.42;;;3.20;99.90;;;;;;5003521;28;20030;-56
2022/03/18 00:31:44;;;;;;;11.17;3.17;;;3.20;99.90;;;;;;5009601;28;20288;-54
2022/03/18 00:34:10;;;;;;;15.55;3.47;;;3.30;99.90;;;;;;5005119;28;20038;-57
2022/03/18 00:36:36;;;;;;;12.52;3.40;;;3.30;99.90;;;;;;5002445;28;20042;-55
2022/03/18 00:39:03;;;;;;;7.50;3.20;;;3.30;99.90;;;;;;5000760;28;20522;-57
2022/03/18 00:41:28;;;;;;;14.20;4.05;;;3.30;99.90;;;;;;5009569;28;20057;-55
2022/03/18 00:43:54;;;;;;;12.77;5.03;;;3.40;99.90;;;;;;5003194;28;20037;-57
2022/03/18 00:46:22;;;;;;;14.10;3.77;;;3.30;99.90;;;;;;5008141;28;20045;-57
2022/03/18 00:54:16;;;;;;;8.77;2.38;;;3.30;99.90;;;;;;5002304;28;20101;-56
2022/03/18 00:56:42;;;;;;;5.90;2.23;;;3.20;99.90;;;;;;4990921;28;20058;-56
2022/03/18 00:59:08;;;;;;;7.93;2.07;;;3.10;99.90;;;;;;5010442;28;20526;-54
2022/03/18 01:01:33;;;;;;;8.90;2.10;;;3.10;99.90;;;;;;4999544;28;20581;-56
2022/03/18 01:03:59;;;;;;;9.95;2.95;;;3.10;99.90;;;;;;4991595;28;20449;-57
2022/03/18 01:06:25;;;;;;;9.00;4.03;;;3.10;99.90;;;;;;4990979;28;20096;-57
2022/03/18 01:08:50;;;;;;;9.20;4.50;;;3.10;99.90;;;;;;5009530;28;20049;-57
2022/03/18 01:11:16;;;;;;;8.57;4.23;;;3.10;99.90;;;;;;5000787;28;20053;-55
2022/03/18 01:13:41;;;;;;;10.37;3.60;;;3.10;99.90;;;;;;4995039;28;20050;-56
2022/03/18 01:16:07;;;;;;;11.53;3.77;;;3.20;99.90;;;;;;5005118;28;20030;-57
2022/03/18 01:18:32;;;;;;;14.07;4.17;;;3.20;99.90;;;;;;5007975;28;20042;-55
2022/03/18 01:20:58;;;;;;;18.27;5.30;;;3.20;99.90;;;;;;5010006;28;20053;-57
2022/03/18 01:23:24;;;;;;;12.47;4.47;;;3.20;99.90;;;;;;4990441;28;20393;-56
2022/03/18 01:25:49;;;;;;;7.60;4.10;;;3.20;99.90;;;;;;5003160;28;20045;-53
2022/03/18 01:28:15;;;;;;;8.47;3.10;;;3.20;99.90;;;;;;4997567;28;20034;-57
2022/03/18 01:30:41;;;;;;;8.25;3.38;;;3.20;99.90;;;;;;4990108;28;20053;-57
2022/03/18 01:33:07;;;;;;;6.20;2.60;;;3.20;99.90;;;;;;4990465;28;20030;-57
2022/03/18 01:35:32;;;;;;;8.07;3.27;;;3.00;99.90;;;;;;4996561;28;20088;-56
2022/03/18 01:37:58;;;;;;;4.80;1.90;;;2.90;99.90;;;;;;5003294;28;20578;-54
2022/03/18 01:40:23;;;;;;;6.60;2.17;;;2.80;99.90;;;;;;4990112;28;20539;-56
2022/03/18 01:42:49;;;;;;;6.30;3.30;;;2.80;99.90;;;;;;5002278;28;20534;-56
2022/03/18 01:45:15;;;;;;;11.57;3.47;;;2.80;99.90;;;;;;5007344;28;20277;-57
2022/03/18 01:47:43;;;;;;;7.57;2.90;;;2.80;99.90;;;;;;4989984;28;20561;-53
2022/03/18 01:50:14;;;;;;;7.22;4.03;;;2.80;99.90;;;;;;5003290;28;20452;-56
2022/03/18 01:52:40;;;;;;;4.93;3.10;;;2.80;99.90;;;;;;5010146;28;20046;-57
2022/03/18 01:55:07;;;;;;;4.95;2.58;;;2.70;99.90;;;;;;4993705;28;20125;-55
2022/03/18 01:57:33;;;;;;;8.55;3.25;;;2.70;99.90;;;;;;5011219;28;20042;-54
2022/03/18 01:59:59;;;;;;;9.82;2.85;;;2.70;99.90;;;;;;5005347;28;20046;-56
2022/03/18 02:02:25;;;;;;;4.05;2.63;;;2.60;99.90;;;;;;4993397;28;20049;-56
2022/03/18 02:04:51;;;;;;;4.90;3.03;;;2.60;99.90;;;;;;5009987;28;20050;-55
2022/03/18 02:07:17;;;;;;;3.15;1.80;;;2.50;99.90;;;;;;5009089;28;20042;-57
2022/03/18 02:09:44;;;;;;;9.75;3.10;;;2.40;99.90;;;;;;5007725;28;20415;-56
2022/03/18 02:12:11;;;;;;;9.60;2.97;;;2.40;99.90;;;;;;4998189;28;20037;-54
2022/03/18 02:14:40;;;;;;;11.95;3.40;;;2.40;99.90;;;;;;5012002;28;20042;-56
2022/03/18 02:17:07;;;;;;;10.80;3.28;;;2.50;99.90;;;;;;5000120;28;20070;-54
2022/03/18 02:19:34;;;;;;;9.98;3.10;;;2.50;99.90;;;;;;5008449;28;20042;-55
2022/03/18 02:22:03;;;;;;;8.18;3.22;;;2.50;99.90;;;;;;5012165;28;20045;-56
2022/03/18 02:24:30;;;;;;;10.13;3.53;;;2.50;99.90;;;;;;5011475;28;20510;-56
2022/03/18 02:26:55;;;;;;;7.10;4.00;;;2.50;99.90;;;;;;5010490;28;20054;-56
2022/03/18 02:29:22;;;;;;;7.30;4.43;;;2.50;99.90;;;;;;4993987;28;20062;-57
2022/03/18 02:31:48;;;;;;;10.10;4.07;;;2.60;99.90;;;;;;5003806;28;20111;-54
2022/03/18 02:34:14;;;;;;;8.30;4.30;;;2.60;99.90;;;;;;5011404;28;20081;-55
2022/03/18 02:36:40;;;;;;;12.90;4.07;;;2.60;99.90;;;;;;5010875;28;20459;-57
2022/03/18 02:39:06;;;;;;;10.37;3.60;;;2.60;99.90;;;;;;4994258;28;20109;-55
2022/03/18 02:41:34;;;;;;;9.30;4.73;;;2.60;99.90;;;;;;4995008;28;20360;-55
2022/03/18 02:44:00;;;;;;;12.98;4.00;;;2.50;99.90;;;;;;4991361;28;20085;-57
2022/03/18 02:46:26;;;;;;;8.07;3.83;;;2.50;99.90;;;;;;5007539;28;20081;-56
2022/03/18 02:48:52;;;;;;;7.20;3.83;;;2.50;99.90;;;;;;5000806;28;20041;-57
2022/03/18 02:51:18;;;;;;;13.30;4.53;;;2.50;99.90;;;;;;4994376;28;20038;-56
2022/03/18 02:53:44;;;;;;;5.10;3.08;;;2.50;99.90;;;;;;5010647;28;20038;-56
2022/03/18 02:56:10;;;;;;;7.63;2.80;;;2.50;99.90;;;;;;5009743;28;20491;-57
2022/03/18 02:58:36;;;;;;;15.05;3.53;;;2.40;99.90;;;;;;5005616;28;20659;-57
2022/03/18 03:01:03;;;;;;;5.75;3.60;;;2.40;99.90;;;;;;4993615;28;20184;-57
2022/03/18 03:03:29;;;;;;;12.25;3.72;;;2.40;99.90;;;;;;5004796;28;20065;-55
2022/03/18 03:08:39;;;;;;;11.40;4.13;;;2.40;99.90;;;;;;5004329;28;20364;-56
2022/03/18 03:11:05;;;;;;;15.68;5.28;;;2.40;99.90;;;;;;4991933;28;20045;-58
2022/03/18 03:13:32;;;;;;;16.45;5.18;;;2.40;99.90;;;;;;4992964;28;20038;-54
2022/03/18 03:15:58;;;;;;;7.00;3.38;;;2.50;99.90;;;;;;4992463;28;20038;-57
2022/03/18 03:18:24;;;;;;;6.93;4.05;;;2.50;99.90;;;;;;5008259;28;20069;-56
2022/03/18 03:20:49;;;;;;;10.93;4.90;;;2.50;99.90;;;;;;4998270;28;20046;-57
2022/03/18 03:23:15;;;;;;;8.73;4.50;;;2.50;99.90;;;;;;4994548;28;20077;-55
2022/03/18 03:25:42;;;;;;;6.47;3.75;;;2.60;99.90;;;;;;5011230;28;20089;-54
2022/03/18 03:28:07;;;;;;;10.68;5.00;;;2.60;99.90;;;;;;5010876;28;20121;-57
2022/03/18 03:30:33;;;;;;;10.90;4.20;;;2.60;99.90;;;;;;5008701;28;20121;-56
2022/03/18 03:32:59;;;;;;;7.47;3.80;;;2.60;99.90;;;;;;5011125;28;20049;-56
2022/03/18 03:35:25;;;;;;;5.97;3.58;;;2.60;99.90;;;;;;4994375;28;20046;-56
2022/03/18 03:37:51;;;;;;;5.70;3.55;;;2.60;99.90;;;;;;4995004;28;20100;-56
2022/03/18 03:40:18;;;;;;;5.90;3.63;;;2.50;99.90;;;;;;4993681;28;20038;-57
2022/03/18 03:42:45;;;;;;;7.25;4.22;;;2.50;99.90;;;;;;5010832;28;20048;-54
2022/03/18 03:45:12;;;;;;;6.07;3.28;;;2.50;99.90;;;;;;5000185;28;20050;-58
2022/03/18 03:47:38;;;;;;;;;;;2.50;99.90;;;;;;4997843;28;20135;-58
2022/03/18 03:50:05;;;;;;;10.63;4.70;;;2.50;99.90;;;;;;5011303;28;20374;-57
2022/03/18 03:52:31;;;;;;;4.50;2.42;;;2.60;99.90;;;;;;5008556;28;20041;-54
2022/03/18 03:54:57;;;;;;;8.43;3.23;;;2.60;99.90;;;;;;5005489;28;20038;-56
2022/03/18 03:57:22;;;;;;;4.77;3.17;;;2.60;99.90;;;;;;4991222;28;20051;-54
2022/03/18 03:59:48;;;;;;;8.30;2.50;;;2.50;99.90;;;;;;5005020;28;20287;-57
2022/03/18 04:02:13;;;;;;;3.03;2.23;;;2.50;99.90;;;;;;5009409;28;20072;-57
2022/03/18 04:04:39;;;;;;;3.27;2.10;;;2.40;99.90;;;;;;5010680;28;20037;-56
2022/03/18 04:07:05;;;;;;;2.28;2.08;;;2.40;99.90;;;;;;4994062;28;20089;-56
2022/03/18 04:09:30;;;;;;;5.00;2.17;;;2.30;99.90;;;;;;4997280;28;20435;-57
2022/03/18 04:11:56;;;;;;;7.27;2.70;;;2.30;99.90;;;;;;5011019;28;20030;-58
2022/03/18 04:14:22;;;;;;;7.07;3.00;;;2.20;99.90;;;;;;5008266;28;20103;-56
2022/03/18 04:16:47;;;;;;;4.27;2.20;;;2.20;99.90;;;;;;5001626;28;20034;-55
2022/03/18 04:19:13;;;;;;;2.90;1.90;;;2.20;99.90;;;;;;4991022;28;20511;-56
2022/03/18 04:21:39;;;;;;;3.58;2.03;;;2.10;99.90;;;;;;4991219;28;20077;-57
2022/03/18 04:24:05;;;;;;;8.25;2.58;;;2.10;99.90;;;;;;4992324;28;20038;-58
2022/03/18 04:26:31;;;;;;;4.43;2.83;;;2.00;99.90;;;;;;4992247;28;20426;-56
2022/03/18 04:28:56;;;;;;;5.68;3.00;;;2.00;99.90;;;;;;4996066;28;20468;-56
2022/03/18 04:31:23;;;;;;;5.93;2.50;;;2.00;99.90;;;;;;5008246;28;20049;-55
2022/03/18 04:33:48;;;;;;;4.63;1.70;;;2.00;99.90;;;;;;5006696;28;20133;-57
2022/03/18 04:36:14;;;;;;;10.50;2.37;;;2.00;99.90;;;;;;5010202;28;20113;-57
2022/03/18 04:38:39;;;;;;;4.37;2.17;;;2.00;99.90;;;;;;5008140;28;20102;-58
2022/03/18 04:41:06;;;;;;;9.17;2.37;;;2.00;99.90;;;;;;5008781;28;20044;-57
2022/03/18 04:43:31;;;;;;;5.80;2.17;;;2.00;99.90;;;;;;4994860;28;20081;-57
2022/03/18 04:45:57;;;;;;;7.73;1.53;;;1.90;99.90;;;;;;5006187;28;20073;-57
2022/03/18 04:48:23;;;;;;;5.00;1.87;;;1.90;99.90;;;;;;4996276;28;20313;-57
2022/03/18 04:50:48;;;;;;;16.37;3.47;;;1.90;99.90;;;;;;4997602;28;20038;-55
2022/03/18 04:53:14;;;;;;;5.17;1.97;;;1.90;99.90;;;;;;4997976;28;20030;-58
2022/03/18 04:55:39;;;;;;;9.63;2.53;;;1.90;99.90;;;;;;5003174;28;20034;-58
2022/03/18 04:58:05;;;;;;;5.37;2.10;;;1.90;99.90;;;;;;5006881;28;20033;-57
2022/03/18 05:00:31;;;;;;;4.43;2.25;;;1.90;99.90;;;;;;4990766;28;20169;-57
2022/03/18 05:02:57;;;;;;;7.82;2.88;;;1.90;99.90;;;;;;4991877;28;20681;-58
2022/03/18 05:05:23;;;;;;;8.55;3.47;;;1.80;99.90;;;;;;4992796;28;20511;-57
2022/03/18 05:07:50;;;;;;;3.38;3.05;;;1.90;99.90;;;;;;4999733;28;20041;-58
2022/03/18 05:10:16;;;;;;;5.40;3.05;;;1.90;99.90;;;;;;4999027;28;20093;-56
2022/03/18 05:12:42;;;;;;;9.90;3.83;;;1.90;99.90;;;;;;4991505;28;20084;-56
2022/03/18 05:15:09;;;;;;;10.87;3.20;;;1.90;99.90;;;;;;4990555;28;20034;-55
2022/03/18 05:17:35;;;;;;;8.52;3.60;;;1.90;99.90;;;;;;4993473;28;20541;-55
2022/03/18 05:20:02;;;;;;;7.50;3.65;;;1.90;99.90;;;;;;5004142;28;20495;-56
2022/03/18 05:22:27;;;;;;;;;;;1.90;99.90;;;;;;5010134;28;20115;-54
2022/03/18 05:24:52;;;;;;;1.65;1.40;;;1.80;99.90;;;;;;5006153;28;20379;-56
2022/03/18 05:27:18;;;;;;;8.07;2.90;;;1.70;99.90;;;;;;5006778;28;20050;-56
2022/03/18 05:29:44;;;;;;;4.50;2.65;;;1.60;99.90;;;;;;5009336;28;20492;-58
2022/03/18 05:32:11;;;;;;;7.75;3.28;;;1.50;99.90;;;;;;5001272;28;20034;-58
2022/03/18 05:34:37;;;;;;;10.95;5.10;;;1.60;99.90;;;;;;4999459;28;20100;-56
2022/03/18 05:37:05;;;;;;;12.77;4.70;;;1.50;99.90;;;;;;4995681;28;20035;-56
2022/03/18 05:39:31;;;;;;;10.27;4.13;;;1.40;99.90;;;;;;5013233;28;20052;-57
2022/03/18 05:41:57;;;;;;;5.25;3.33;;;1.40;99.90;;;;;;5010684;28;20037;-54
2022/03/18 05:44:23;;;;;;;8.43;4.32;;;1.40;99.90;;;;;;5009810;28;20485;-56
2022/03/18 05:46:48;;;;;;;12.80;3.77;;;1.40;99.90;;;;;;4993518;28;20070;-56
2022/03/18 05:49:14;;;;;;;12.90;3.75;;;1.40;99.90;;;;;;5006916;28;20113;-54
2022/03/18 05:51:40;;;;;;;7.23;3.37;;;1.40;99.90;;;;;;5010311;28;20034;-55
2022/03/18 05:54:06;;;;;;;6.53;3.15;;;1.50;99.90;;;;;;4993472;28;20035;-57
2022/03/18 05:59:18;;;;;;;6.40;3.75;;;1.50;99.90;;;;;;5007873;28;20496;-56
2022/03/18 06:01:43;;;;;;;;;;;1.60;99.90;;;;;;4994214;28;20045;-55
2022/03/18 06:04:10;;;;;;;9.88;4.68;;;1.70;99.90;;;;;;5007234;28;19921;-56
2022/03/18 06:06:40;;;;;;;7.97;3.38;;;1.70;99.90;;;;;;5008159;28;20121;-56
2022/03/18 06:11:51;;;;;;;10.75;3.50;;;2.00;99.90;;;;;;5010322;28;20047;-57
2022/03/18 06:14:18;;;;;;;;;;;2.20;99.90;;;;;;5010994;28;20034;-57
2022/03/18 06:16:44;;;;;;;11.90;4.18;;;2.40;99.90;;;;;;5012693;28;19918;-57
2022/03/18 06:19:11;;;;;;;9.85;3.13;;;2.70;99.90;;;;;;5010058;28;20038;-57
2022/03/18 06:21:37;;;;;;;12.65;3.90;;;2.80;99.90;;;;;;4993186;28;20053;-55
2022/03/18 06:24:02;;;;;;;9.97;3.80;;;3.00;99.90;;;;;;4995185;28;20038;-55
2022/03/18 06:26:30;;;;;;;8.20;3.47;;;3.20;99.90;;;;;;4999730;28;20069;-57
2022/03/18 06:28:55;;;;;;;10.00;3.70;;;3.60;99.90;;;;;;5011887;28;20037;-56
2022/03/18 06:31:21;;;;;;;13.53;5.83;;;3.80;99.90;;;;;;5012420;28;20038;-55
2022/03/18 06:33:47;;;;;;;11.93;6.07;;;4.10;99.90;;;;;;5005833;28;20034;-56
2022/03/18 06:36:13;;;;;;;10.27;5.17;;;4.40;99.90;;;;;;5010207;28;20030;-56
2022/03/18 06:38:39;;;;;;;12.35;4.75;;;4.60;99.90;;;;;;5010645;28;20041;-56
2022/03/18 06:41:04;;;;;;;11.43;4.83;;;4.90;99.90;;;;;;5006971;28;20065;-56
2022/03/18 06:43:30;;;;;;;10.18;3.97;;;5.30;99.90;;;;;;4999187;28;20407;-53
2022/03/18 06:45:56;;;;;;;5.90;3.90;;;5.50;99.90;;;;;;5008767;28;20128;-56
2022/03/18 06:48:21;;;;;;;6.67;3.67;;;5.80;99.90;;;;;;5012216;28;20327;-57
2022/03/18 06:50:47;;;;;;;13.93;4.10;;;6.00;99.90;;;;;;4997361;28;20101;-55
2022/03/18 06:53:13;;;;;;;18.50;4.05;;;6.10;99.90;;;;;;5007899;28;20626;-55
2022/03/18 06:55:38;;;;;;;17.33;4.87;;;6.20;99.90;;;;;;5010068;28;20037;-56
2022/03/18 06:58:04;;;;;;;20.83;4.30;;;6.10;99.90;;;;;;5011586;28;20034;-56
2022/03/18 07:00:29;;;;;;;12.97;3.47;;;6.10;99.90;;;;;;5003822;28;20046;-57
2022/03/18 07:02:55;;;;;;;36.40;6.22;;;6.10;99.90;;;;;;5011069;28;20526;-55
2022/03/18 07:05:21;;;;;;;12.33;4.10;;;6.00;99.90;;;;;;5003687;28;20530;-56
2022/03/18 07:07:48;;;;;;;7.30;3.90;;;6.00;99.90;;;;;;5005967;28;20134;-57
2022/03/18 07:10:14;;;;;;;10.02;4.10;;;6.00;99.90;;;;;;5011746;28;20042;-56
2022/03/18 07:12:40;;;;;;;9.63;4.50;;;6.00;99.90;;;;;;5005815;28;20043;-56
2022/03/18 07:15:06;;;;;;;7.05;4.60;;;6.00;99.90;;;;;;4992319;28;20049;-56
2022/03/18 07:20:16;;;;;;;9.65;4.20;;;6.00;99.90;;;;;;4993424;28;20104;-53
2022/03/18 07:22:42;;;;;;;9.30;4.20;;;6.00;99.90;;;;;;4992928;28;20129;-53
2022/03/18 07:25:08;;;;;;;10.67;5.23;;;6.10;99.90;;;;;;5003829;28;20096;-57
2022/03/18 07:27:34;;;;;;;;;;;6.10;99.90;;;;;;5009904;28;20072;-56
2022/03/18 07:29:59;;;;;;;14.73;4.55;;;6.10;99.90;;;;;;4999267;28;20302;-54
2022/03/18 07:32:25;;;;;;;61.63;8.33;;;6.10;99.90;;;;;;4991452;28;20518;-53
2022/03/18 07:34:51;;;;;;;17.17;5.73;;;6.20;99.90;;;;;;4992082;28;20488;-53
2022/03/18 07:37:16;;;;;;;14.53;5.40;;;6.20;99.90;;;;;;4992237;28;20045;-56
2022/03/18 07:39:42;;;;;;;15.53;6.10;;;6.30;99.90;;;;;;5005834;28;20034;-55
2022/03/18 07:42:07;;;;;;;14.83;6.90;;;6.40;99.90;;;;;;4996672;28;20045;-51
2022/03/18 07:44:36;;;;;;;16.40;5.97;;;6.40;99.90;;;;;;4991264;28;20647;-53
2022/03/18 07:47:02;;;;;;;12.98;5.63;;;6.50;99.90;;;;;;5000340;28;20551;-56
2022/03/18 07:49:28;;;;;;;13.93;5.45;;;6.50;99.90;;;;;;4999594;28;20041;-54
2022/03/18 07:51:54;;;;;;;18.87;5.63;;;6.60;99.90;;;;;;5009617;28;20079;-52
2022/03/18 07:54:19;;;;;;;11.07;6.87;;;6.60;99.90;;;;;;5010987;28;20050;-56
2022/03/18 07:56:45;;;;;;;14.13;5.57;;;6.70;99.90;;;;;;5001714;28;20035;-54
2022/03/18 07:59:10;;;;;;;13.63;5.70;;;6.70;99.90;;;;;;4991249;28;20042;-53
2022/03/18 08:01:38;;;;;;;12.47;5.23;;;6.80;99.90;;;;;;5001993;28;20109;-52
2022/03/18 08:04:04;;;;;;;14.32;5.95;;;6.90;99.90;;;;;;4991277;28;20046;-55
2022/03/18 08:06:29;;;;;;;12.07;5.10;;;6.90;99.90;;;;;;5004176;28;20116;-52
2022/03/18 08:08:55;;;;;;;17.97;6.60;;;7.00;99.90;;;;;;5009670;28;20372;-53
2022/03/18 08:11:20;;;;;;;11.43;5.57;;;7.10;99.90;;;;;;5006702;28;20088;-52
2022/03/18 08:13:49;;;;;;;17.05;5.25;;;7.20;99.90;;;;;;5008898;28;20066;-55
2022/03/18 08:16:15;;;;;;;10.27;5.85;;;7.30;99.90;;;;;;4999942;28;20046;-56
2022/03/18 08:18:41;;;;;;;13.50;5.57;;;7.40;99.90;;;;;;4991800;28;20038;-53
2022/03/18 08:21:07;;;;;;;17.05;6.82;;;7.40;99.90;;;;;;5005925;28;20034;-54
2022/03/18 08:23:34;;;;;;;15.33;6.90;;;7.50;99.90;;;;;;5000324;28;20419;-53
2022/03/18 08:26:00;;;;;;;14.95;6.78;;;7.60;99.90;;;;;;4998833;28;20280;-53
2022/03/18 08:28:25;;;;;;;15.18;6.50;;;7.60;99.90;;;;;;5004084;28;20041;-53
2022/03/18 08:30:51;;;;;;;13.60;6.63;;;7.70;99.90;;;;;;4999696;28;20042;-56
2022/03/18 08:33:17;;;;;;;13.70;7.28;;;7.80;99.90;;;;;;5000160;28;20032;-54
2022/03/18 08:35:42;;;;;;;16.90;8.17;;;7.90;99.90;;;;;;5000750;28;20034;-57
2022/03/18 08:38:09;;;;;;;16.47;8.03;;;8.10;99.90;;;;;;4999822;28;20045;-56
2022/03/18 08:40:36;;;;;;;12.55;6.90;;;8.20;99.90;;;;;;4999881;28;20518;-56
2022/03/18 08:43:08;;;;;;;13.50;7.70;;;8.30;99.90;;;;;;5000271;28;20113;-56
2022/03/18 08:45:34;;;;;;;17.08;9.27;;;8.40;99.90;;;;;;5001989;28;20088;-56
2022/03/18 08:48:00;;;;;;;15.80;8.90;;;8.50;99.90;;;;;;5002991;28;20571;-54
2022/03/18 08:50:26;;;;;;;14.38;9.18;;;8.60;99.90;;;;;;5000723;28;20344;-54
2022/03/18 08:52:54;;;;;;;16.23;8.80;;;8.80;99.90;;;;;;5001943;28;20050;-53
2022/03/18 08:55:21;;;;;;;14.88;8.32;;;8.90;99.90;;;;;;4997724;28;20089;-53
2022/03/18 08:57:46;;;;;;;15.98;7.93;;;9.10;99.90;;;;;;4995205;28;20053;-54
2022/03/18 09:00:15;;;;;;;14.77;8.50;;;9.20;99.90;;;;;;5010306;28;20030;-55
2022/03/18 09:02:42;;;;;;;21.50;9.68;;;9.30;99.90;;;;;;4997073;28;20042;-54
2022/03/18 09:05:09;;;;;;;22.40;9.65;;;9.40;99.90;;;;;;5007450;28;20041;-55
2022/03/18 09:07:36;;;;;;;20.17;7.85;;;9.50;99.90;;;;;;5010105;28;20037;-56
2022/03/18 09:10:06;;;;;;;20.67;9.23;;;9.60;99.90;;;;;;5011871;28;20052;-56
2022/03/18 09:12:31;;;;;;;20.00;9.52;;;9.80;99.90;;;;;;5011414;28;20038;-54
2022/03/18 09:15:03;;;;;;;26.60;9.80;;;9.90;99.90;;;;;;5010367;28;20402;-56
2022/03/18 09:17:29;;;;;;;16.67;10.05;;;10.10;99.90;;;;;;5008720;28;20053;-56
2022/03/18 09:19:55;;;;;;;18.00;9.45;;;10.20;99.90;;;;;;5012991;28;20038;-55
2022/03/18 09:22:21;;;;;;;21.27;10.63;;;10.30;99.90;;;;;;5010144;28;20192;-57
2022/03/18 09:24:47;;;;;;;18.08;9.57;;;10.50;99.90;;;;;;5010492;28;20038;-55
2022/03/18 09:27:16;;;;;;;20.98;11.20;;;10.60;99.90;;;;;;5009740;28;20121;-55
2022/03/18 09:29:41;;;;;;;15.77;10.40;;;10.70;99.90;;;;;;5010051;28;20399;-56
2022/03/18 09:32:08;;;;;;;19.20;11.07;;;10.80;99.90;;;;;;5011100;28;20034;-55
2022/03/18 09:34:34;;;;;;;19.20;9.77;;;10.90;99.90;;;;;;5010095;28;20376;-53
2022/03/18 09:37:00;;;;;;;;;;;11.10;99.90;;;;;;5009059;28;20069;-53
2022/03/18 09:39:29;;;;;;;18.08;10.15;;;11.20;99.90;;;;;;5000466;28;19957;-55
2022/03/18 09:41:55;;;;;;;28.63;11.70;;;11.40;99.90;;;;;;5000798;28;20061;-54
2022/03/18 09:44:21;;;;;;;15.45;10.77;;;11.50;99.90;;;;;;4998069;28;20039;-56
2022/03/18 09:46:50;;;;;;;41.85;11.80;;;11.60;99.90;;;;;;5002866;28;20037;-55
2022/03/18 09:49:18;;;;;;;22.88;10.77;;;11.70;99.90;;;;;;4989546;28;20519;-56
2022/03/18 09:51:47;;;;;;;23.05;12.25;;;11.80;99.90;;;;;;4997056;28;20042;-55
2022/03/18 09:54:14;;;;;;;17.10;9.52;;;11.90;99.90;;;;;;5008363;28;20491;-56
2022/03/18 09:56:45;;;;;;;24.27;10.93;;;12.00;99.90;;;;;;5004089;28;20034;-55
2022/03/18 09:59:12;;;;;;;21.23;11.32;;;12.00;99.90;;;;;;4990444;28;20343;-53
2022/03/18 10:01:38;;;;;;;25.63;11.43;;;12.10;99.90;;;;;;4992229;28;20479;-57
2022/03/18 10:04:10;;;;;;;17.08;10.35;;;12.10;99.90;;;;;;5008288;28;20133;-55
2022/03/18 10:06:37;;;;;;;20.02;10.20;;;12.10;99.90;;;;;;5005207;28;20419;-56
2022/03/18 10:09:04;;;;;;;22.67;10.18;;;12.20;99.90;;;;;;5012849;28;20056;-56
2022/03/18 10:11:33;;;;;;;20.33;10.65;;;12.30;99.90;;;;;;5003188;28;20089;-55
2022/03/18 10:14:02;;;;;;;25.13;11.77;;;12.30;99.90;;;;;;5008969;28;20046;-55
2022/03/18 10:16:42;;;;;;;25.95;10.23;;;12.30;99.90;;;;;;4999409;28;20156;-56
2022/03/18 10:19:13;;;;;;;15.95;10.70;;;12.40;99.90;;;;;;5008882;28;20123;-57
2022/03/18 10:21:58;;;;;;;25.48;11.13;;;12.50;99.70;;;;;;5003013;28;20038;-57
2022/03/18 10:24:38;;;;;;;19.33;10.10;;;12.60;99.80;;;;;;5005223;28;20491;-56
2022/03/18 10:27:15;;;;;;;20.42;9.77;;;12.70;99.60;;;;;;5006415;28;20046;-57
2022/03/18 10:29:43;;;;;;;47.53;12.38;;;12.70;99.90;;;;;;5005014;28;20042;-55
2022/03/18 10:32:09;;;;;;;18.77;9.30;;;12.80;99.70;;;;;;5009273;28;20046;-58
2022/03/18 10:37:22;;;;;;;23.17;10.73;;;12.90;99.60;;;;;;4994804;28;20077;-54
2022/03/18 10:39:50;;;;;;;19.95;9.52;;;12.90;99.50;;;;;;5009026;28;20038;-53
2022/03/18 10:42:18;;;;;;;17.67;9.15;;;12.90;99.90;;;;;;4995035;28;20530;-52
2022/03/18 10:44:50;;;;;;;21.92;9.35;;;13.00;99.30;;;;;;4992887;28;20403;-53
2022/03/18 10:47:26;;;;;;;20.85;9.18;;;13.10;99.10;;;;;;5007337;28;20041;-55
2022/03/18 10:50:13;;;;;;;15.97;8.93;;;13.10;99.00;;;;;;5010578;28;20042;-53
2022/03/18 10:52:40;;;;;;;;;;;13.20;99.00;;;;;;5005424;28;20042;-51
2022/03/18 10:55:31;;;;;;;16.02;9.43;;;13.30;98.40;;;;;;5011113;28;19971;-55
2022/03/18 10:58:08;;;;;;;17.55;8.05;;;13.40;98.80;;;;;;4994777;28;20514;-54
2022/03/18 11:00:36;;;;;;;15.60;8.35;;;13.50;98.70;;;;;;4993678;28;20033;-56
2022/03/18 11:03:03;;;;;;;19.17;8.80;;;13.60;98.50;;;;;;5010546;28;20052;-56
2022/03/18 11:05:34;;;;;;;15.85;8.75;;;13.80;98.20;;;;;;5011094;28;20050;-56
2022/03/18 11:08:02;;;;;;;14.85;8.82;;;13.90;97.70;;;;;;4996637;28;20162;-56
2022/03/18 11:13:14;;;;;;;9.25;6.40;;;14.00;97.40;;;;;;5021612;28;20042;-57
2022/03/18 11:15:43;;;;;;;15.85;7.18;;;14.00;97.40;;;;;;5004358;28;20042;-57
2022/03/18 11:18:11;;;;;;;14.27;8.32;;;14.00;97.00;;;;;;5009750;28;20048;-55
2022/03/18 11:20:42;;;;;;;21.33;8.23;;;14.00;96.50;;;;;;4999039;28;20472;-56
2022/03/18 11:23:18;;;;;;;14.50;6.80;;;14.00;96.60;;;;;;5007546;28;20088;-55
2022/03/18 11:25:51;;;;;;;14.02;8.07;;;14.10;96.60;;;;;;5010852;28;20045;-56
2022/03/18 11:28:19;;;;;;;18.45;8.77;;;14.20;97.10;;;;;;5005084;28;20490;-56
2022/03/18 11:30:47;;;;;;;17.00;8.60;;;14.30;96.30;;;;;;5011613;28;20081;-57
2022/03/18 11:33:15;;;;;;;11.55;6.75;;;14.30;96.40;;;;;;5005121;28;20037;-58
2022/03/18 11:35:50;;;;;;;13.23;8.48;;;14.30;96.50;;;;;;5010821;28;20088;-57
2022/03/18 11:38:22;;;;;;;13.32;7.22;;;14.30;95.20;;;;;;4999024;28;20038;-57
2022/03/18 11:40:58;;;;;;;14.38;7.80;;;14.30;95.60;;;;;;5000175;28;20049;-57
2022/03/18 11:43:30;;;;;;;12.40;6.20;;;14.30;95.60;;;;;;4995232;28;20504;-57
2022/03/18 11:46:17;;;;;;;19.98;7.35;;;14.40;95.90;;;;;;4991104;28;20046;-54
2022/03/18 11:49:12;;;;;;;17.50;8.30;;;14.50;95.60;;;;;;4999982;28;20101;-58
2022/03/18 11:51:40;;;;;;;18.45;7.78;;;14.40;95.50;;;;;;4998344;28;20065;-58
2022/03/18 11:54:16;;;;;;;19.35;8.27;;;14.50;95.60;;;;;;4991590;28;20038;-56
2022/03/18 11:56:48;;;;;;;16.45;8.20;;;14.50;95.40;;;;;;4991355;28;20061;-56
2022/03/18 11:59:29;;;;;;;16.00;8.27;;;14.60;95.40;;;;;;4992534;28;20034;-57
2022/03/18 12:02:01;;;;;;;14.27;7.35;;;14.70;95.00;;;;;;5006668;28;20042;-54
2022/03/18 12:04:32;;;;;;;15.25;7.28;;;14.80;94.90;;;;;;4991759;28;20038;-57
2022/03/18 12:07:19;;;;;;;8.13;5.38;;;14.80;94.90;;;;;;4991294;28;20116;-58
2022/03/18 12:09:55;;;;;;;14.05;5.68;;;14.90;94.10;;;;;;5001704;28;20048;-55
2022/03/18 12:12:24;;;;;;;13.43;6.68;;;15.00;93.90;;;;;;4996898;28;20050;-57
2022/03/18 12:14:54;;;;;;;5.88;4.30;;;15.10;93.90;;;;;;5009358;28;20095;-56
2022/03/18 12:17:21;;;;;;;11.70;5.28;;;15.20;93.90;;;;;;4995872;28;20034;-57
2022/03/18 12:19:49;;;;;;;13.63;5.30;;;15.40;94.30;;;;;;4997993;28;20046;-57
2022/03/18 12:22:17;;;;;;;10.85;5.50;;;15.50;93.40;;;;;;5008049;28;20065;-57
2022/03/18 12:24:42;;;;;;;11.70;6.15;;;15.70;93.30;;;;;;5001409;28;20087;-58
2022/03/18 12:27:08;;;;;;;10.98;4.50;;;15.80;93.00;;;;;;4991339;28;20439;-58
2022/03/18 12:29:33;;;;;;;10.18;4.20;;;16.00;92.80;;;;;;5007554;28;20547;-56
2022/03/18 12:32:08;;;;;;;9.15;3.40;;;16.00;91.60;;;;;;5009755;28;20038;-57
2022/03/18 12:34:35;;;;;;;7.45;3.90;;;16.10;90.60;;;;;;5002830;28;20522;-57
2022/03/18 12:37:01;;;;;;;10.50;3.90;;;16.10;90.60;;;;;;5008065;28;20437;-55
2022/03/18 12:39:27;;;;;;;;;;;16.20;91.20;;;;;;4994960;28;20054;-57
2022/03/18 12:42:08;;;;;;;8.88;3.00;;;16.20;88.60;;;;;;4988386;28;20454;-57
2022/03/18 12:44:34;;;;;;;10.73;4.05;;;16.30;89.70;;;;;;5000382;28;20045;-57
2022/03/18 12:47:01;;;;;;;14.85;5.47;;;16.40;90.30;;;;;;4998006;28;20037;-58
2022/03/18 12:49:35;;;;;;;7.35;3.58;;;16.50;89.10;;;;;;5005957;28;20042;-56
2022/03/18 12:52:01;;;;;;;13.25;4.75;;;16.40;87.60;;;;;;5008768;28;20046;-58
2022/03/18 12:54:28;;;;;;;9.90;4.00;;;16.30;88.10;;;;;;5006876;28;20504;-58
2022/03/18 12:56:54;;;;;;;8.15;4.18;;;16.20;88.20;;;;;;5000452;28;20104;-56
2022/03/18 12:59:20;;;;;;;9.13;4.97;;;16.20;86.70;;;;;;5009969;28;20030;-56
2022/03/18 13:01:53;;;;;;;;;;;16.20;86.50;;;;;;4999291;28;20312;-58
2022/03/18 13:04:20;;;;;;;8.52;4.45;;;16.20;86.00;;;;;;5001439;28;20004;-58
2022/03/18 13:06:54;;;;;;;14.23;4.88;;;16.30;87.20;;;;;;4996050;28;20044;-57
2022/03/18 13:09:20;;;;;;;7.43;3.60;;;16.40;88.10;;;;;;4990606;28;20058;-57
2022/03/18 13:11:45;;;;;;;11.00;3.53;;;16.40;86.20;;;;;;5002090;28;20419;-58
2022/03/18 13:14:12;;;;;;;6.07;1.33;;;16.30;85.40;;;;;;4996597;28;20412;-58